Terminal Aerodrome Forecast
Issued by NWS

Home | Current Version | Previous Version | Text Only | Print | Product List | Glossary On
Versions: 1 2 3 4 5 6 7 8 9 10 11 12 13 14 15 16 17 18 19
000
FTUS43 KDTX 011402 AAA
TAFDET
TAF AMD
KDET 011402Z 0114/0212 12005KT 6SM BR SCT008 BKN020
     FM011500 15005KT P6SM SCT010 BKN025
     FM011800 15008KT 6SM -SHRA BKN025 OVC040
     FM020400 10003KT 4SM BR BKN035=

USA.gov is the U.S. government's official web portal to all federal, state and local government web resources and services.